Terminal Aerodrome Forecast
Issued by NWS Twin Cities, MN

Home | Current Version | Previous Version | Graphics & Text | Print | Product List | Glossary On
Versions: 1 2 3 4 5 6 7 8 9 10 11 12 13 14 15 16 17 18 19 20 21 22 23 24 25
000
FTUS43 KMPX 222000 AAA
TAFMSP
TAF AMD
KMSP 222058Z 2221/2324 14016G24KT P6SM VCSH SCT070 BKN100
     FM230300 15011KT P6SM OVC045
     FM230500 16008KT 5SM -SHRA BR BKN025 OVC035
     FM230900 16005KT 4SM BR BKN020
     FM231300 23006KT P6SM SCT020=

USA.gov is the U.S. government's official web portal to all federal, state and local government web resources and services.